sensor_id;sensor_type;location;lat;lon;timestamp;temperature;humidity
42905;DHT22;28550;51.228;4.528;2023-03-11T07:03:11;3.20;99.90
42905;DHT22;28550;51.228;4.528;2023-03-11T07:05:36;4.00;99.90
42905;DHT22;28550;51.228;4.528;2023-03-11T07:08:02;4.40;99.90
42905;DHT22;28550;51.228;4.528;2023-03-11T07:10:27;5.00;99.90
42905;DHT22;28550;51.228;4.528;2023-03-11T07:12:53;5.40;96.20
42905;DHT22;28550;51.228;4.528;2023-03-11T07:15:19;5.90;83.40
42905;DHT22;28550;51.228;4.528;2023-03-11T07:17:44;6.40;65.80
42905;DHT22;28550;51.228;4.528;2023-03-11T07:20:10;6.80;59.10
42905;DHT22;28550;51.228;4.528;2023-03-11T07:22:36;7.20;55.60
42905;DHT22;28550;51.228;4.528;2023-03-11T07:25:01;7.70;45.70
42905;DHT22;28550;51.228;4.528;2023-03-11T07:27:27;8.10;31.70
42905;DHT22;28550;51.228;4.528;2023-03-11T07:29:52;8.40;1.10
42905;DHT22;28550;51.228;4.528;2023-03-11T07:32:18;8.80;1.00
42905;DHT22;28550;51.228;4.528;2023-03-11T07:34:43;9.30;1.00
42905;DHT22;28550;51.228;4.528;2023-03-11T07:37:09;9.50;1.00
42905;DHT22;28550;51.228;4.528;2023-03-11T07:39:35;9.70;99.90
42905;DHT22;28550;51.228;4.528;2023-03-11T07:42:00;10.00;1.00
42905;DHT22;28550;51.228;4.528;2023-03-11T07:44:26;10.40;1.00
42905;DHT22;28550;51.228;4.528;2023-03-11T07:46:51;10.60;99.90
42905;DHT22;28550;51.228;4.528;2023-03-11T07:49:17;11.10;99.90
42905;DHT22;28550;51.228;4.528;2023-03-11T07:51:42;11.80;1.00
42905;DHT22;28550;51.228;4.528;2023-03-11T07:54:10;12.20;1.00
42905;DHT22;28550;51.228;4.528;2023-03-11T07:56:36;12.70;8.50
42905;DHT22;28550;51.228;4.528;2023-03-11T07:59:02;13.00;1.00
42905;DHT22;28550;51.228;4.528;2023-03-11T08:01:29;13.50;25.80
42905;DHT22;28550;51.228;4.528;2023-03-11T08:04:01;13.40;99.90
42905;DHT22;28550;51.228;4.528;2023-03-11T08:06:27;14.00;1.00
42905;DHT22;28550;51.228;4.528;2023-03-11T08:08:58;13.90;99.90
42905;DHT22;28550;51.228;4.528;2023-03-11T08:11:24;13.90;61.10
42905;DHT22;28550;51.228;4.528;2023-03-11T08:13:50;14.10;56.70
42905;DHT22;28550;51.228;4.528;2023-03-11T08:16:17;14.50;99.90
42905;DHT22;28550;51.228;4.528;2023-03-11T08:18:44;14.70;1.00
42905;DHT22;28550;51.228;4.528;2023-03-11T08:21:12;14.80;99.90
42905;DHT22;28550;51.228;4.528;2023-03-11T08:23:38;15.10;99.90
42905;DHT22;28550;51.228;4.528;2023-03-11T08:26:04;15.50;99.90
42905;DHT22;28550;51.228;4.528;2023-03-11T08:28:29;15.80;1.00
42905;DHT22;28550;51.228;4.528;2023-03-11T08:30:55;15.80;99.90
42905;DHT22;28550;51.228;4.528;2023-03-11T08:33:21;16.10;82.20
42905;DHT22;28550;51.228;4.528;2023-03-11T08:35:46;16.40;1.00
42905;DHT22;28550;51.228;4.528;2023-03-11T08:38:12;16.30;1.00
42905;DHT22;28550;51.228;4.528;2023-03-11T08:40:38;15.70;1.00
42905;DHT22;28550;51.228;4.528;2023-03-11T08:43:04;15.10;1.00
42905;DHT22;28550;51.228;4.528;2023-03-11T08:45:30;13.80;1.00
42905;DHT22;28550;51.228;4.528;2023-03-11T08:47:55;13.80;1.00
42905;DHT22;28550;51.228;4.528;2023-03-11T08:50:22;14.00;1.00
42905;DHT22;28550;51.228;4.528;2023-03-11T08:52:48;14.20;1.00
42905;DHT22;28550;51.228;4.528;2023-03-11T08:55:14;14.90;1.00
42905;DHT22;28550;51.228;4.528;2023-03-11T08:57:41;15.30;1.00
42905;DHT22;28550;51.228;4.528;2023-03-11T09:00:08;15.80;1.00
42905;DHT22;28550;51.228;4.528;2023-03-11T09:02:33;16.00;1.00
42905;DHT22;28550;51.228;4.528;2023-03-11T09:04:59;16.90;1.00
42905;DHT22;28550;51.228;4.528;2023-03-11T09:07:24;17.60;1.00
42905;DHT22;28550;51.228;4.528;2023-03-11T09:09:50;17.10;1.00
42905;DHT22;28550;51.228;4.528;2023-03-11T09:12:16;17.10;1.00
42905;DHT22;28550;51.228;4.528;2023-03-11T09:14:42;17.10;1.00
42905;DHT22;28550;51.228;4.528;2023-03-11T09:17:08;17.80;99.90
42905;DHT22;28550;51.228;4.528;2023-03-11T09:19:35;18.50;99.90
42905;DHT22;28550;51.228;4.528;2023-03-11T09:22:00;18.70;99.90
42905;DHT22;28550;51.228;4.528;2023-03-11T09:24:26;18.30;99.90
42905;DHT22;28550;51.228;4.528;2023-03-11T09:26:52;16.60;99.90
42905;DHT22;28550;51.228;4.528;2023-03-11T09:29:18;15.70;99.90
42905;DHT22;28550;51.228;4.528;2023-03-11T09:31:43;16.80;99.90
42905;DHT22;28550;51.228;4.528;2023-03-11T09:34:10;17.40;99.90
42905;DHT22;28550;51.228;4.528;2023-03-11T09:36:36;17.80;99.90
42905;DHT22;28550;51.228;4.528;2023-03-11T09:39:04;17.80;99.90
42905;DHT22;28550;51.228;4.528;2023-03-11T09:41:37;17.80;99.90
42905;DHT22;28550;51.228;4.528;2023-03-11T09:45:03;17.70;99.90
42905;DHT22;28550;51.228;4.528;2023-03-11T09:55:02;16.30;99.90
42905;DHT22;28550;51.228;4.528;2023-03-11T09:57:31;13.40;99.90
42905;DHT22;28550;51.228;4.528;2023-03-11T09:59:59;12.40;99.90
42905;DHT22;28550;51.228;4.528;2023-03-11T10:02:26;12.40;99.90
42905;DHT22;28550;51.228;4.528;2023-03-11T10:05:00;11.70;99.90
42905;DHT22;28550;51.228;4.528;2023-03-11T10:07:30;10.70;99.90
42905;DHT22;28550;51.228;4.528;2023-03-11T10:09:57;10.30;99.90
42905;DHT22;28550;51.228;4.528;2023-03-11T10:15:04;10.90;99.90
42905;DHT22;28550;51.228;4.528;2023-03-11T10:22:49;16.00;99.90
42905;DHT22;28550;51.228;4.528;2023-03-11T10:28:04;17.50;99.90
42905;DHT22;28550;51.228;4.528;2023-03-11T10:30:34;17.30;99.90
42905;DHT22;28550;51.228;4.528;2023-03-11T10:35:45;15.60;99.90
42905;DHT22;28550;51.228;4.528;2023-03-11T10:38:19;15.30;99.90
42905;DHT22;28550;51.228;4.528;2023-03-11T10:40:59;15.40;99.90
42905;DHT22;28550;51.228;4.528;2023-03-11T10:45:54;14.10;99.90
42905;DHT22;28550;51.228;4.528;2023-03-11T10:48:20;14.10;99.90
42905;DHT22;28550;51.228;4.528;2023-03-11T10:50:48;13.70;99.90
42905;DHT22;28550;51.228;4.528;2023-03-11T10:53:15;12.90;99.90
42905;DHT22;28550;51.228;4.528;2023-03-11T10:55:46;13.00;99.90
42905;DHT22;28550;51.228;4.528;2023-03-11T10:58:12;13.10;99.90
42905;DHT22;28550;51.228;4.528;2023-03-11T11:00:38;13.10;99.90
42905;DHT22;28550;51.228;4.528;2023-03-11T11:03:04;13.70;99.90
42905;DHT22;28550;51.228;4.528;2023-03-11T11:05:36;14.40;99.90
42905;DHT22;28550;51.228;4.528;2023-03-11T11:08:35;14.40;99.90
42905;DHT22;28550;51.228;4.528;2023-03-11T11:10:55;14.10;99.90
42905;DHT22;28550;51.228;4.528;2023-03-11T11:13:22;14.30;99.90
42905;DHT22;28550;51.228;4.528;2023-03-11T11:15:55;14.00;99.90
42905;DHT22;28550;51.228;4.528;2023-03-11T11:18:28;13.30;99.90
42905;DHT22;28550;51.228;4.528;2023-03-11T11:20:56;13.80;99.90
42905;DHT22;28550;51.228;4.528;2023-03-11T11:25:57;14.30;99.90
42905;DHT22;28550;51.228;4.528;2023-03-11T11:28:23;14.90;99.90
42905;DHT22;28550;51.228;4.528;2023-03-11T11:33:22;12.80;99.90
42905;DHT22;28550;51.228;4.528;2023-03-11T11:35:49;13.20;99.90
42905;DHT22;28550;51.228;4.528;2023-03-11T11:38:15;13.20;99.90
42905;DHT22;28550;51.228;4.528;2023-03-11T11:40:41;13.50;99.90
42905;DHT22;28550;51.228;4.528;2023-03-11T11:43:20;13.40;99.90
42905;DHT22;28550;51.228;4.528;2023-03-11T11:45:58;13.40;99.90
42905;DHT22;28550;51.228;4.528;2023-03-11T11:48:31;13.90;99.90
42905;DHT22;28550;51.228;4.528;2023-03-11T11:51:02;15.50;99.90
42905;DHT22;28550;51.228;4.528;2023-03-11T11:53:41;16.70;99.90
42905;DHT22;28550;51.228;4.528;2023-03-11T11:56:08;17.80;99.90
42905;DHT22;28550;51.228;4.528;2023-03-11T11:58:34;18.90;99.90
42905;DHT22;28550;51.228;4.528;2023-03-11T12:06:28;20.30;99.90
42905;DHT22;28550;51.228;4.528;2023-03-11T12:09:09;21.00;99.90
42905;DHT22;28550;51.228;4.528;2023-03-11T12:12:38;21.90;99.90
42905;DHT22;28550;51.228;4.528;2023-03-11T12:17:17;22.20;99.90
42905;DHT22;28550;51.228;4.528;2023-03-11T12:19:50;22.40;99.90
42905;DHT22;28550;51.228;4.528;2023-03-11T12:22:24;21.60;99.90
42905;DHT22;28550;51.228;4.528;2023-03-11T12:27:20;19.80;99.90
42905;DHT22;28550;51.228;4.528;2023-03-11T12:30:21;19.90;99.90
42905;DHT22;28550;51.228;4.528;2023-03-11T12:32:40;20.10;99.90
42905;DHT22;28550;51.228;4.528;2023-03-11T12:35:24;19.60;99.90
42905;DHT22;28550;51.228;4.528;2023-03-11T12:38:05;19.20;99.90
42905;DHT22;28550;51.228;4.528;2023-03-11T12:46:02;18.20;99.90
42905;DHT22;28550;51.228;4.528;2023-03-11T12:50:57;19.80;99.90
42905;DHT22;28550;51.228;4.528;2023-03-11T13:01:39;22.40;99.90
42905;DHT22;28550;51.228;4.528;2023-03-11T13:09:18;22.40;99.90
42905;DHT22;28550;51.228;4.528;2023-03-11T13:11:44;21.70;99.90
42905;DHT22;28550;51.228;4.528;2023-03-11T13:14:31;21.40;99.90
42905;DHT22;28550;51.228;4.528;2023-03-11T13:19:56;22.70;99.90
42905;DHT22;28550;51.228;4.528;2023-03-11T13:25:23;24.60;99.90
42905;DHT22;28550;51.228;4.528;2023-03-11T13:27:49;25.40;99.90
42905;DHT22;28550;51.228;4.528;2023-03-11T13:30:19;23.30;99.90
42905;DHT22;28550;51.228;4.528;2023-03-11T13:32:51;23.30;99.90
42905;DHT22;28550;51.228;4.528;2023-03-11T13:35:43;22.60;99.90
42905;DHT22;28550;51.228;4.528;2023-03-11T13:38:17;22.80;99.90
42905;DHT22;28550;51.228;4.528;2023-03-11T13:40:46;23.90;99.90
42905;DHT22;28550;51.228;4.528;2023-03-11T13:43:19;24.10;99.90
42905;DHT22;28550;51.228;4.528;2023-03-11T13:45:47;24.40;99.90
42905;DHT22;28550;51.228;4.528;2023-03-11T13:48:23;24.00;99.90
42905;DHT22;28550;51.228;4.528;2023-03-11T13:56:11;21.60;99.90
42905;DHT22;28550;51.228;4.528;2023-03-11T13:58:40;21.10;99.90
42905;DHT22;28550;51.228;4.528;2023-03-11T14:01:09;20.70;99.90
42905;DHT22;28550;51.228;4.528;2023-03-11T14:03:42;21.40;99.90
42905;DHT22;28550;51.228;4.528;2023-03-11T14:06:10;21.60;99.90
42905;DHT22;28550;51.228;4.528;2023-03-11T14:08:40;20.80;99.90
42905;DHT22;28550;51.228;4.528;2023-03-11T14:16:04;18.80;99.90
42905;DHT22;28550;51.228;4.528;2023-03-11T14:18:33;20.70;99.90
42905;DHT22;28550;51.228;4.528;2023-03-11T14:20:59;21.40;99.90
42905;DHT22;28550;51.228;4.528;2023-03-11T14:23:29;22.40;99.90
42905;DHT22;28550;51.228;4.528;2023-03-11T14:26:16;22.60;99.90
42905;DHT22;28550;51.228;4.528;2023-03-11T14:28:43;22.60;99.90
42905;DHT22;28550;51.228;4.528;2023-03-11T14:31:20;22.80;99.90
42905;DHT22;28550;51.228;4.528;2023-03-11T14:33:53;22.40;99.90
42905;DHT22;28550;51.228;4.528;2023-03-11T14:36:21;22.40;99.90
42905;DHT22;28550;51.228;4.528;2023-03-11T14:38:49;20.60;99.90
42905;DHT22;28550;51.228;4.528;2023-03-11T14:41:15;18.20;99.90
42905;DHT22;28550;51.228;4.528;2023-03-11T14:43:41;16.20;99.90
42905;DHT22;28550;51.228;4.528;2023-03-11T14:46:09;14.70;99.90
42905;DHT22;28550;51.228;4.528;2023-03-11T14:48:44;13.50;99.90
42905;DHT22;28550;51.228;4.528;2023-03-11T14:51:13;12.70;99.90
42905;DHT22;28550;51.228;4.528;2023-03-11T14:53:42;12.30;99.90
42905;DHT22;28550;51.228;4.528;2023-03-11T14:56:14;12.10;99.90
42905;DHT22;28550;51.228;4.528;2023-03-11T14:58:42;12.10;99.90
42905;DHT22;28550;51.228;4.528;2023-03-11T15:01:11;12.90;99.90
42905;DHT22;28550;51.228;4.528;2023-03-11T15:03:46;13.10;99.90
42905;DHT22;28550;51.228;4.528;2023-03-11T15:06:16;13.00;99.90
42905;DHT22;28550;51.228;4.528;2023-03-11T15:08:43;12.80;99.90
42905;DHT22;28550;51.228;4.528;2023-03-11T15:13:36;13.30;99.90
42905;DHT22;28550;51.228;4.528;2023-03-11T15:16:03;14.20;99.90
42905;DHT22;28550;51.228;4.528;2023-03-11T15:18:31;15.20;99.90
42905;DHT22;28550;51.228;4.528;2023-03-11T15:23:29;17.90;99.90
42905;DHT22;28550;51.228;4.528;2023-03-11T15:25:55;18.80;99.90
42905;DHT22;28550;51.228;4.528;2023-03-11T15:30:48;19.60;99.90
42905;DHT22;28550;51.228;4.528;2023-03-11T15:33:22;20.20;99.90
42905;DHT22;28550;51.228;4.528;2023-03-11T15:35:50;20.50;99.90
42905;DHT22;28550;51.228;4.528;2023-03-11T15:40:49;21.00;99.90
42905;DHT22;28550;51.228;4.528;2023-03-11T15:45:50;19.50;99.90
42905;DHT22;28550;51.228;4.528;2023-03-11T15:48:18;19.20;99.90
42905;DHT22;28550;51.228;4.528;2023-03-11T15:50:46;17.40;99.90
42905;DHT22;28550;51.228;4.528;2023-03-11T15:53:12;15.70;99.90
42905;DHT22;28550;51.228;4.528;2023-03-11T15:55:38;14.50;99.90
42905;DHT22;28550;51.228;4.528;2023-03-11T15:58:05;14.10;99.90
42905;DHT22;28550;51.228;4.528;2023-03-11T16:00:32;13.50;99.90
42905;DHT22;28550;51.228;4.528;2023-03-11T16:02:58;13.20;99.90
42905;DHT22;28550;51.228;4.528;2023-03-11T16:05:26;12.90;99.90
42905;DHT22;28550;51.228;4.528;2023-03-11T16:07:53;13.00;99.90
42905;DHT22;28550;51.228;4.528;2023-03-11T16:10:20;12.90;99.90
42905;DHT22;28550;51.228;4.528;2023-03-11T16:12:46;12.70;99.90
42905;DHT22;28550;51.228;4.528;2023-03-11T16:15:27;12.40;99.90
42905;DHT22;28550;51.228;4.528;2023-03-11T16:17:54;11.80;99.90
42905;DHT22;28550;51.228;4.528;2023-03-11T16:20:22;11.40;99.90
42905;DHT22;28550;51.228;4.528;2023-03-11T16:22:52;11.10;99.90
42905;DHT22;28550;51.228;4.528;2023-03-11T16:25:31;10.90;99.90
42905;DHT22;28550;51.228;4.528;2023-03-11T16:27:59;10.70;99.90
42905;DHT22;28550;51.228;4.528;2023-03-11T16:30:27;10.40;99.90
42905;DHT22;28550;51.228;4.528;2023-03-11T16:32:52;10.00;99.90
42905;DHT22;28550;51.228;4.528;2023-03-11T16:35:18;9.70;99.90
42905;DHT22;28550;51.228;4.528;2023-03-11T16:37:45;9.50;99.90
42905;DHT22;28550;51.228;4.528;2023-03-11T16:40:15;9.30;99.90
42905;DHT22;28550;51.228;4.528;2023-03-11T16:42:42;9.40;99.90
42905;DHT22;28550;51.228;4.528;2023-03-11T16:45:09;9.30;99.90
42905;DHT22;28550;51.228;4.528;2023-03-11T16:47:35;9.40;99.90
42905;DHT22;28550;51.228;4.528;2023-03-11T16:50:02;9.20;99.90
42905;DHT22;28550;51.228;4.528;2023-03-11T16:52:31;9.00;99.90
42905;DHT22;28550;51.228;4.528;2023-03-11T16:54:58;9.00;99.90
42905;DHT22;28550;51.228;4.528;2023-03-11T16:57:24;8.80;99.90
42905;DHT22;28550;51.228;4.528;2023-03-11T16:59:50;8.70;99.90
42905;DHT22;28550;51.228;4.528;2023-03-11T17:02:17;8.50;99.90
42905;DHT22;28550;51.228;4.528;2023-03-11T17:04:43;8.40;99.90
42905;DHT22;28550;51.228;4.528;2023-03-11T17:07:09;8.40;99.90
42905;DHT22;28550;51.228;4.528;2023-03-11T17:09:35;8.40;99.90
42905;DHT22;28550;51.228;4.528;2023-03-11T17:12:01;8.30;99.90
42905;DHT22;28550;51.228;4.528;2023-03-11T17:14:27;8.20;99.90
42905;DHT22;28550;51.228;4.528;2023-03-11T17:16:53;8.10;99.90
42905;DHT22;28550;51.228;4.528;2023-03-11T17:19:22;8.00;99.90
42905;DHT22;28550;51.228;4.528;2023-03-11T17:21:49;8.00;99.90
42905;DHT22;28550;51.228;4.528;2023-03-11T17:24:16;7.90;99.90
42905;DHT22;28550;51.228;4.528;2023-03-11T17:26:42;7.90;99.90
42905;DHT22;28550;51.228;4.528;2023-03-11T17:29:11;7.70;99.90
42905;DHT22;28550;51.228;4.528;2023-03-11T17:31:44;7.50;99.90
42905;DHT22;28550;51.228;4.528;2023-03-11T17:34:23;7.30;99.90
42905;DHT22;28550;51.228;4.528;2023-03-11T17:36:50;7.10;99.90
42905;DHT22;28550;51.228;4.528;2023-03-11T17:39:22;6.90;99.90
42905;DHT22;28550;51.228;4.528;2023-03-11T17:41:48;6.70;99.90
42905;DHT22;28550;51.228;4.528;2023-03-11T17:44:15;6.60;99.90
42905;DHT22;28550;51.228;4.528;2023-03-11T17:46:59;6.60;99.90
42905;DHT22;28550;51.228;4.528;2023-03-11T17:49:25;6.50;99.90
42905;DHT22;28550;51.228;4.528;2023-03-11T17:51:50;6.30;1.00
42905;DHT22;28550;51.228;4.528;2023-03-11T17:54:19;6.30;1.00
42905;DHT22;28550;51.228;4.528;2023-03-11T17:56:47;6.10;1.00
42905;DHT22;28550;51.228;4.528;2023-03-11T17:59:13;6.00;1.00
42905;DHT22;28550;51.228;4.528;2023-03-11T18:04:09;5.80;1.00
42905;DHT22;28550;51.228;4.528;2023-03-11T18:06:36;5.80;97.80
42905;DHT22;28550;51.228;4.528;2023-03-11T18:09:03;5.80;99.90
42905;DHT22;28550;51.228;4.528;2023-03-11T18:11:28;5.70;1.00
42905;DHT22;28550;51.228;4.528;2023-03-11T18:13:55;5.60;99.90
42905;DHT22;28550;51.228;4.528;2023-03-11T18:16:23;5.50;1.00
42905;DHT22;28550;51.228;4.528;2023-03-11T18:18:51;5.50;99.90
42905;DHT22;28550;51.228;4.528;2023-03-11T18:21:18;5.40;26.40
42905;DHT22;28550;51.228;4.528;2023-03-11T18:23:44;5.20;1.00
42905;DHT22;28550;51.228;4.528;2023-03-11T18:26:13;5.20;99.90
42905;DHT22;28550;51.228;4.528;2023-03-11T18:28:39;5.10;99.90
42905;DHT22;28550;51.228;4.528;2023-03-11T18:31:08;5.10;1.00
42905;DHT22;28550;51.228;4.528;2023-03-11T18:33:34;5.00;1.00
42905;DHT22;28550;51.228;4.528;2023-03-11T18:36:12;4.90;1.00
42905;DHT22;28550;51.228;4.528;2023-03-11T18:38:38;4.80;99.90
42905;DHT22;28550;51.228;4.528;2023-03-11T18:41:03;4.70;99.90
42905;DHT22;28550;51.228;4.528;2023-03-11T18:43:29;4.60;1.00
42905;DHT22;28550;51.228;4.528;2023-03-11T18:45:55;4.60;1.00
42905;DHT22;28550;51.228;4.528;2023-03-11T18:48:21;4.50;67.10
42905;DHT22;28550;51.228;4.528;2023-03-11T18:50:50;4.50;99.90
42905;DHT22;28550;51.228;4.528;2023-03-11T18:53:23;4.40;1.00
42905;DHT22;28550;51.228;4.528;2023-03-11T18:55:51;4.30;1.00
42905;DHT22;28550;51.228;4.528;2023-03-11T18:58:17;4.30;29.50
42905;DHT22;28550;51.228;4.528;2023-03-11T19:00:43;4.30;99.90
42905;DHT22;28550;51.228;4.528;2023-03-11T19:03:12;4.30;99.90
42905;DHT22;28550;51.228;4.528;2023-03-11T19:05:44;4.20;99.90
42905;DHT22;28550;51.228;4.528;2023-03-11T19:08:11;4.30;99.90
42905;DHT22;28550;51.228;4.528;2023-03-11T19:10:39;4.20;99.90
42905;DHT22;28550;51.228;4.528;2023-03-11T19:13:06;4.20;99.90
42905;DHT22;28550;51.228;4.528;2023-03-11T19:15:31;4.10;99.90
42905;DHT22;28550;51.228;4.528;2023-03-11T19:17:57;4.10;1.00
42905;DHT22;28550;51.228;4.528;2023-03-11T19:20:22;4.00;99.90
42905;DHT22;28550;51.228;4.528;2023-03-11T19:22:52;4.10;99.90
42905;DHT22;28550;51.228;4.528;2023-03-11T19:25:18;4.00;1.00
42905;DHT22;28550;51.228;4.528;2023-03-11T19:27:53;4.00;1.00
42905;DHT22;28550;51.228;4.528;2023-03-11T19:30:20;4.00;1.00
42905;DHT22;28550;51.228;4.528;2023-03-11T19:32:46;3.90;1.00
42905;DHT22;28550;51.228;4.528;2023-03-11T19:35:12;3.90;1.00
42905;DHT22;28550;51.228;4.528;2023-03-11T19:37:39;3.90;1.00
42905;DHT22;28550;51.228;4.528;2023-03-11T19:40:06;3.80;1.00
42905;DHT22;28550;51.228;4.528;2023-03-11T19:42:32;3.70;1.00
42905;DHT22;28550;51.228;4.528;2023-03-11T19:44:59;3.60;1.00
42905;DHT22;28550;51.228;4.528;2023-03-11T19:47:24;3.60;1.00
42905;DHT22;28550;51.228;4.528;2023-03-11T19:49:53;3.50;1.00
42905;DHT22;28550;51.228;4.528;2023-03-11T19:52:19;3.50;1.00
42905;DHT22;28550;51.228;4.528;2023-03-11T19:54:44;3.60;1.00
42905;DHT22;28550;51.228;4.528;2023-03-11T19:57:10;3.60;1.00
42905;DHT22;28550;51.228;4.528;2023-03-11T19:59:35;3.70;1.00
42905;DHT22;28550;51.228;4.528;2023-03-11T20:02:01;3.80;1.00
42905;DHT22;28550;51.228;4.528;2023-03-11T20:04:27;3.90;1.00
42905;DHT22;28550;51.228;4.528;2023-03-11T20:06:53;3.90;1.00
42905;DHT22;28550;51.228;4.528;2023-03-11T20:09:20;3.80;1.00
42905;DHT22;28550;51.228;4.528;2023-03-11T20:11:45;3.80;1.00
42905;DHT22;28550;51.228;4.528;2023-03-11T20:14:11;3.80;1.00
42905;DHT22;28550;51.228;4.528;2023-03-11T20:16:37;3.80;1.00
42905;DHT22;28550;51.228;4.528;2023-03-11T20:19:06;3.80;1.00
42905;DHT22;28550;51.228;4.528;2023-03-11T20:21:32;3.80;1.00
42905;DHT22;28550;51.228;4.528;2023-03-11T20:23:57;3.70;1.00
42905;DHT22;28550;51.228;4.528;2023-03-11T20:26:23;3.70;1.00
42905;DHT22;28550;51.228;4.528;2023-03-11T20:28:49;3.60;1.00
42905;DHT22;28550;51.228;4.528;2023-03-11T20:31:19;3.60;1.00
42905;DHT22;28550;51.228;4.528;2023-03-11T20:33:45;3.60;1.00
42905;DHT22;28550;51.228;4.528;2023-03-11T20:36:15;3.60;1.00
42905;DHT22;28550;51.228;4.528;2023-03-11T20:38:41;3.60;1.00
42905;DHT22;28550;51.228;4.528;2023-03-11T20:44:01;3.70;1.00
42905;DHT22;28550;51.228;4.528;2023-03-11T20:46:26;3.80;1.00
42905;DHT22;28550;51.228;4.528;2023-03-11T20:48:52;3.80;1.00
42905;DHT22;28550;51.228;4.528;2023-03-11T20:51:18;3.80;1.00
42905;DHT22;28550;51.228;4.528;2023-03-11T20:53:45;3.90;1.00
42905;DHT22;28550;51.228;4.528;2023-03-11T20:56:12;3.90;1.00
42905;DHT22;28550;51.228;4.528;2023-03-11T20:58:38;3.90;1.00
42905;DHT22;28550;51.228;4.528;2023-03-11T21:01:11;4.00;1.00
42905;DHT22;28550;51.228;4.528;2023-03-11T21:03:37;4.10;1.00
42905;DHT22;28550;51.228;4.528;2023-03-11T21:06:03;4.20;1.00
42905;DHT22;28550;51.228;4.528;2023-03-11T21:08:28;4.20;1.00
42905;DHT22;28550;51.228;4.528;2023-03-11T21:10:58;4.30;1.00
42905;DHT22;28550;51.228;4.528;2023-03-11T21:13:24;4.40;99.90
42905;DHT22;28550;51.228;4.528;2023-03-11T21:15:52;4.40;99.90
42905;DHT22;28550;51.228;4.528;2023-03-11T21:18:17;4.50;99.90
42905;DHT22;28550;51.228;4.528;2023-03-11T21:20:43;4.50;17.00
42905;DHT22;28550;51.228;4.528;2023-03-11T21:23:08;4.50;1.00
42905;DHT22;28550;51.228;4.528;2023-03-11T21:25:35;4.50;1.00
42905;DHT22;28550;51.228;4.528;2023-03-11T21:28:03;4.60;99.90
42905;DHT22;28550;51.228;4.528;2023-03-11T21:30:28;4.60;1.00
42905;DHT22;28550;51.228;4.528;2023-03-11T21:32:55;4.60;99.90
42905;DHT22;28550;51.228;4.528;2023-03-11T21:35:20;4.60;99.90
42905;DHT22;28550;51.228;4.528;2023-03-11T21:37:46;4.60;1.00
42905;DHT22;28550;51.228;4.528;2023-03-11T21:40:13;4.70;99.90
42905;DHT22;28550;51.228;4.528;2023-03-11T21:42:38;4.80;99.90
42905;DHT22;28550;51.228;4.528;2023-03-11T21:45:04;4.90;99.90
42905;DHT22;28550;51.228;4.528;2023-03-11T21:47:30;4.90;99.90
42905;DHT22;28550;51.228;4.528;2023-03-11T21:49:55;5.00;99.90
42905;DHT22;28550;51.228;4.528;2023-03-11T21:52:21;5.00;1.00
42905;DHT22;28550;51.228;4.528;2023-03-11T21:54:47;5.10;99.90
42905;DHT22;28550;51.228;4.528;2023-03-11T21:57:12;5.00;1.00
42905;DHT22;28550;51.228;4.528;2023-03-11T21:59:43;5.00;1.00
42905;DHT22;28550;51.228;4.528;2023-03-11T22:02:12;4.90;1.00
42905;DHT22;28550;51.228;4.528;2023-03-11T22:04:38;4.90;1.00
42905;DHT22;28550;51.228;4.528;2023-03-11T22:07:04;5.00;1.00
42905;DHT22;28550;51.228;4.528;2023-03-11T22:09:29;5.00;99.90
42905;DHT22;28550;51.228;4.528;2023-03-11T22:11:57;5.00;99.90
42905;DHT22;28550;51.228;4.528;2023-03-11T22:14:22;4.90;1.00
42905;DHT22;28550;51.228;4.528;2023-03-11T22:16:48;4.90;99.90
42905;DHT22;28550;51.228;4.528;2023-03-11T22:19:13;4.80;99.90
42905;DHT22;28550;51.228;4.528;2023-03-11T22:21:39;4.80;99.90
42905;DHT22;28550;51.228;4.528;2023-03-11T22:24:05;4.70;1.00
42905;DHT22;28550;51.228;4.528;2023-03-11T22:26:30;4.70;99.90
42905;DHT22;28550;51.228;4.528;2023-03-11T22:28:56;4.70;1.00
42905;DHT22;28550;51.228;4.528;2023-03-11T22:31:21;4.70;1.00
42905;DHT22;28550;51.228;4.528;2023-03-11T22:33:47;4.80;99.90
42905;DHT22;28550;51.228;4.528;2023-03-11T22:36:13;4.80;1.00
42905;DHT22;28550;51.228;4.528;2023-03-11T22:38:38;4.80;99.90
42905;DHT22;28550;51.228;4.528;2023-03-11T22:41:04;4.80;99.90
42905;DHT22;28550;51.228;4.528;2023-03-11T22:43:32;4.80;47.30
42905;DHT22;28550;51.228;4.528;2023-03-11T22:45:59;4.70;69.10
42905;DHT22;28550;51.228;4.528;2023-03-11T22:48:24;4.70;1.00
42905;DHT22;28550;51.228;4.528;2023-03-11T22:50:50;4.70;1.00
42905;DHT22;28550;51.228;4.528;2023-03-11T22:53:16;4.70;26.50
42905;DHT22;28550;51.228;4.528;2023-03-11T22:55:42;4.70;99.90
42905;DHT22;28550;51.228;4.528;2023-03-11T22:58:08;4.70;99.90
42905;DHT22;28550;51.228;4.528;2023-03-11T23:00:34;4.70;99.90
42905;DHT22;28550;51.228;4.528;2023-03-11T23:03:01;4.70;1.00
42905;DHT22;28550;51.228;4.528;2023-03-11T23:05:26;4.80;99.90
42905;DHT22;28550;51.228;4.528;2023-03-11T23:07:52;4.80;99.90
42905;DHT22;28550;51.228;4.528;2023-03-11T23:10:18;4.70;55.90
42905;DHT22;28550;51.228;4.528;2023-03-11T23:12:48;4.70;75.60
42905;DHT22;28550;51.228;4.528;2023-03-11T23:15:16;4.70;99.90
42905;DHT22;28550;51.228;4.528;2023-03-11T23:17:42;4.60;99.90
42905;DHT22;28550;51.228;4.528;2023-03-11T23:20:09;4.60;99.90
42905;DHT22;28550;51.228;4.528;2023-03-11T23:22:35;4.60;99.90
42905;DHT22;28550;51.228;4.528;2023-03-11T23:25:02;4.50;99.90
42905;DHT22;28550;51.228;4.528;2023-03-11T23:27:28;4.50;99.90
42905;DHT22;28550;51.228;4.528;2023-03-11T23:29:54;4.40;1.00
42905;DHT22;28550;51.228;4.528;2023-03-11T23:32:20;4.40;1.00
42905;DHT22;28550;51.228;4.528;2023-03-11T23:34:45;4.30;1.00
42905;DHT22;28550;51.228;4.528;2023-03-11T23:37:13;4.30;1.00
42905;DHT22;28550;51.228;4.528;2023-03-11T23:39:38;4.30;1.00
42905;DHT22;28550;51.228;4.528;2023-03-11T23:42:04;4.20;17.80
42905;DHT22;28550;51.228;4.528;2023-03-11T23:44:30;4.30;1.00
42905;DHT22;28550;51.228;4.528;2023-03-11T23:46:56;4.30;14.60
42905;DHT22;28550;51.228;4.528;2023-03-11T23:49:21;4.40;1.00
42905;DHT22;28550;51.228;4.528;2023-03-11T23:51:47;4.50;1.00
42905;DHT22;28550;51.228;4.528;2023-03-11T23:54:12;4.50;99.90
42905;DHT22;28550;51.228;4.528;2023-03-11T23:56:38;4.50;1.00
42905;DHT22;28550;51.228;4.528;2023-03-11T23:59:04;4.40;1.00
